Portada
METAR-TAF:

METAR-TAF

Aeroports :

Fergana, Uzbekistan

latitud: 40-21-32N, longitud: 071-44-42E, altitud: 625 m

Observació

L'informe es va fer fa 6 hores i 1 minuts, a les 12:00 UTC
Vent 4 kt del Nord
Temperatura 3°C
Humitat 44%
Pressió 1026 hPa
Visibilitat: 6000 m

METAR: UTFF 251200Z 35004KT 6000 NSC 03/M08 Q1026 R18/CLRD70

Hora: 23:01 (18:01 UTC)

Pronòstic

L'informe es va fer fa 6 hores i 1 minuts, a les 12:00 UTC
Pronòstic vàlid del 25 a les 13 UTC al 25 a les 22 UTC
Vent 10 kt del Sud-Est
Visibilitat: 7000 m
Temporalment
l' 25 a les 13 UTC al 25 a les 22 UTC
Vent 2 kt amb direcció variable
Visibilitat: 3100 m
boirina

TAF: UTFF 251200Z 2513/2522 14010KT 7000 NSC TEMPO 2513/2522 VRB02KT 3100 BR

Observacions i pronòstics meteorològics de més de 4000 aeroports (METAR i TAF).

Les estacions disponibles són els punts grocs i vermells al mapa.

Posi el ratolí al punt desitjat per veure el nom de l'estació.

Feu clic per veure les observacions i els pronòstics meteorològics.

Per canviar el mapa: feu clic els botons verds amb una creu de color negre per apropar; al botó verd amb un guió per allunyar la imatge; o en les fletxes verdes per a mapes adjacents.


METAR-TAF: